sensor_id;sensor_type;location;lat;lon;timestamp;P1;durP1;ratioP1;P2;durP2;ratioP2
17201;SDS011;8717;53.588;10.176;2023-04-16T00:01:01;23.33;;;16.57;;
17201;SDS011;8717;53.588;10.176;2023-04-16T00:03:28;24.17;;;17.53;;
17201;SDS011;8717;53.588;10.176;2023-04-16T00:05:55;23.80;;;16.10;;
17201;SDS011;8717;53.588;10.176;2023-04-16T00:08:22;22.97;;;15.77;;
17201;SDS011;8717;53.588;10.176;2023-04-16T00:10:49;23.43;;;16.37;;
17201;SDS011;8717;53.588;10.176;2023-04-16T00:13:16;21.07;;;15.70;;
17201;SDS011;8717;53.588;10.176;2023-04-16T00:15:44;21.80;;;15.60;;
17201;SDS011;8717;53.588;10.176;2023-04-16T00:18:10;20.53;;;15.73;;
17201;SDS011;8717;53.588;10.176;2023-04-16T00:20:37;24.27;;;15.53;;
17201;SDS011;8717;53.588;10.176;2023-04-16T00:23:04;21.63;;;15.53;;
17201;SDS011;8717;53.588;10.176;2023-04-16T00:25:31;21.73;;;14.70;;
17201;SDS011;8717;53.588;10.176;2023-04-16T00:27:58;22.47;;;15.77;;
17201;SDS011;8717;53.588;10.176;2023-04-16T00:30:25;25.00;;;16.07;;
17201;SDS011;8717;53.588;10.176;2023-04-16T00:32:53;27.10;;;15.83;;
17201;SDS011;8717;53.588;10.176;2023-04-16T00:35:20;25.37;;;14.77;;
17201;SDS011;8717;53.588;10.176;2023-04-16T00:37:47;20.23;;;14.97;;
17201;SDS011;8717;53.588;10.176;2023-04-16T00:40:14;23.73;;;16.13;;
17201;SDS011;8717;53.588;10.176;2023-04-16T00:42:41;23.73;;;15.47;;
17201;SDS011;8717;53.588;10.176;2023-04-16T00:45:08;22.23;;;15.73;;
17201;SDS011;8717;53.588;10.176;2023-04-16T00:47:36;22.93;;;15.40;;
17201;SDS011;8717;53.588;10.176;2023-04-16T00:50:05;22.47;;;15.33;;
17201;SDS011;8717;53.588;10.176;2023-04-16T00:52:32;22.20;;;15.20;;
17201;SDS011;8717;53.588;10.176;2023-04-16T00:55:00;21.40;;;14.73;;
17201;SDS011;8717;53.588;10.176;2023-04-16T00:57:27;22.00;;;14.87;;
17201;SDS011;8717;53.588;10.176;2023-04-16T00:59:54;22.77;;;14.90;;
17201;SDS011;8717;53.588;10.176;2023-04-16T01:02:21;21.70;;;15.23;;
17201;SDS011;8717;53.588;10.176;2023-04-16T01:04:49;22.97;;;14.70;;
17201;SDS011;8717;53.588;10.176;2023-04-16T01:07:17;21.60;;;14.40;;
17201;SDS011;8717;53.588;10.176;2023-04-16T01:09:44;19.03;;;14.23;;
17201;SDS011;8717;53.588;10.176;2023-04-16T01:12:11;23.17;;;14.17;;
17201;SDS011;8717;53.588;10.176;2023-04-16T01:14:38;22.63;;;13.87;;
17201;SDS011;8717;53.588;10.176;2023-04-16T01:17:05;21.33;;;14.33;;
17201;SDS011;8717;53.588;10.176;2023-04-16T01:19:32;17.83;;;13.57;;
17201;SDS011;8717;53.588;10.176;2023-04-16T01:22:02;20.27;;;13.90;;
17201;SDS011;8717;53.588;10.176;2023-04-16T01:24:28;20.33;;;13.53;;
17201;SDS011;8717;53.588;10.176;2023-04-16T01:26:56;17.07;;;13.57;;
17201;SDS011;8717;53.588;10.176;2023-04-16T01:29:23;20.10;;;14.03;;
17201;SDS011;8717;53.588;10.176;2023-04-16T01:31:50;23.67;;;14.50;;
17201;SDS011;8717;53.588;10.176;2023-04-16T01:34:25;17.87;;;12.87;;
17201;SDS011;8717;53.588;10.176;2023-04-16T01:36:51;19.43;;;13.00;;
17201;SDS011;8717;53.588;10.176;2023-04-16T01:39:20;19.53;;;13.70;;
17201;SDS011;8717;53.588;10.176;2023-04-16T01:41:47;18.23;;;12.93;;
17201;SDS011;8717;53.588;10.176;2023-04-16T01:44:14;17.10;;;13.07;;
17201;SDS011;8717;53.588;10.176;2023-04-16T01:46:41;18.30;;;12.97;;
17201;SDS011;8717;53.588;10.176;2023-04-16T01:49:09;18.97;;;13.17;;
17201;SDS011;8717;53.588;10.176;2023-04-16T01:51:36;18.60;;;12.60;;
17201;SDS011;8717;53.588;10.176;2023-04-16T01:54:02;19.07;;;13.23;;
17201;SDS011;8717;53.588;10.176;2023-04-16T01:56:30;17.30;;;12.90;;
17201;SDS011;8717;53.588;10.176;2023-04-16T01:58:57;18.80;;;13.57;;
17201;SDS011;8717;53.588;10.176;2023-04-16T02:01:29;19.80;;;13.23;;
17201;SDS011;8717;53.588;10.176;2023-04-16T02:03:56;17.40;;;12.53;;
17201;SDS011;8717;53.588;10.176;2023-04-16T02:06:23;16.60;;;12.87;;
17201;SDS011;8717;53.588;10.176;2023-04-16T02:08:50;18.10;;;13.03;;
17201;SDS011;8717;53.588;10.176;2023-04-16T02:11:17;16.73;;;12.40;;
17201;SDS011;8717;53.588;10.176;2023-04-16T02:13:46;18.57;;;12.97;;
17201;SDS011;8717;53.588;10.176;2023-04-16T02:16:13;17.40;;;12.70;;
17201;SDS011;8717;53.588;10.176;2023-04-16T02:18:52;18.17;;;12.87;;
17201;SDS011;8717;53.588;10.176;2023-04-16T02:21:20;16.57;;;12.73;;
17201;SDS011;8717;53.588;10.176;2023-04-16T02:23:47;19.37;;;13.77;;
17201;SDS011;8717;53.588;10.176;2023-04-16T02:26:18;16.77;;;12.37;;
17201;SDS011;8717;53.588;10.176;2023-04-16T02:28:49;19.03;;;13.27;;
17201;SDS011;8717;53.588;10.176;2023-04-16T02:31:19;19.27;;;13.37;;
17201;SDS011;8717;53.588;10.176;2023-04-16T02:33:46;20.37;;;13.83;;
17201;SDS011;8717;53.588;10.176;2023-04-16T02:36:13;17.57;;;13.27;;
17201;SDS011;8717;53.588;10.176;2023-04-16T02:38:40;16.60;;;12.50;;
17201;SDS011;8717;53.588;10.176;2023-04-16T02:41:07;22.23;;;14.30;;
17201;SDS011;8717;53.588;10.176;2023-04-16T02:43:34;17.43;;;12.83;;
17201;SDS011;8717;53.588;10.176;2023-04-16T02:46:02;17.57;;;13.53;;
17201;SDS011;8717;53.588;10.176;2023-04-16T02:48:28;19.30;;;13.67;;
17201;SDS011;8717;53.588;10.176;2023-04-16T02:50:55;20.27;;;14.00;;
17201;SDS011;8717;53.588;10.176;2023-04-16T02:53:22;18.53;;;13.60;;
17201;SDS011;8717;53.588;10.176;2023-04-16T02:55:49;17.90;;;13.30;;
17201;SDS011;8717;53.588;10.176;2023-04-16T02:58:18;16.73;;;12.70;;
17201;SDS011;8717;53.588;10.176;2023-04-16T03:00:45;18.83;;;12.97;;
17201;SDS011;8717;53.588;10.176;2023-04-16T03:03:13;19.50;;;13.57;;
17201;SDS011;8717;53.588;10.176;2023-04-16T03:05:40;18.53;;;13.17;;
17201;SDS011;8717;53.588;10.176;2023-04-16T03:08:07;20.07;;;14.10;;
17201;SDS011;8717;53.588;10.176;2023-04-16T03:10:33;19.60;;;13.47;;
17201;SDS011;8717;53.588;10.176;2023-04-16T03:13:00;19.40;;;14.10;;
17201;SDS011;8717;53.588;10.176;2023-04-16T03:15:27;18.53;;;12.70;;
17201;SDS011;8717;53.588;10.176;2023-04-16T03:17:55;17.37;;;13.33;;
17201;SDS011;8717;53.588;10.176;2023-04-16T03:20:23;19.43;;;13.10;;
17201;SDS011;8717;53.588;10.176;2023-04-16T03:22:51;19.07;;;13.50;;
17201;SDS011;8717;53.588;10.176;2023-04-16T03:25:18;18.53;;;12.93;;
17201;SDS011;8717;53.588;10.176;2023-04-16T03:27:45;19.87;;;13.90;;
17201;SDS011;8717;53.588;10.176;2023-04-16T03:30:13;20.47;;;13.37;;
17201;SDS011;8717;53.588;10.176;2023-04-16T03:32:41;19.73;;;13.30;;
17201;SDS011;8717;53.588;10.176;2023-04-16T03:35:09;18.43;;;13.37;;
17201;SDS011;8717;53.588;10.176;2023-04-16T03:37:38;16.80;;;12.93;;
17201;SDS011;8717;53.588;10.176;2023-04-16T03:40:05;20.03;;;13.93;;
17201;SDS011;8717;53.588;10.176;2023-04-16T03:42:33;17.23;;;12.70;;
17201;SDS011;8717;53.588;10.176;2023-04-16T03:45:01;20.70;;;14.37;;
17201;SDS011;8717;53.588;10.176;2023-04-16T03:47:28;16.93;;;12.97;;
17201;SDS011;8717;53.588;10.176;2023-04-16T03:49:58;19.27;;;13.17;;
17201;SDS011;8717;53.588;10.176;2023-04-16T03:52:26;17.17;;;13.50;;
17201;SDS011;8717;53.588;10.176;2023-04-16T03:54:54;17.40;;;13.43;;
17201;SDS011;8717;53.588;10.176;2023-04-16T03:57:25;20.07;;;13.53;;
17201;SDS011;8717;53.588;10.176;2023-04-16T03:59:55;20.13;;;13.90;;
17201;SDS011;8717;53.588;10.176;2023-04-16T04:02:24;18.93;;;14.27;;
17201;SDS011;8717;53.588;10.176;2023-04-16T04:04:51;17.30;;;12.93;;
17201;SDS011;8717;53.588;10.176;2023-04-16T04:07:18;22.80;;;14.77;;
17201;SDS011;8717;53.588;10.176;2023-04-16T04:09:45;18.63;;;13.60;;
17201;SDS011;8717;53.588;10.176;2023-04-16T04:12:13;18.30;;;13.90;;
17201;SDS011;8717;53.588;10.176;2023-04-16T04:14:41;20.40;;;14.53;;
17201;SDS011;8717;53.588;10.176;2023-04-16T04:17:08;19.90;;;14.47;;
17201;SDS011;8717;53.588;10.176;2023-04-16T04:19:34;19.70;;;14.00;;
17201;SDS011;8717;53.588;10.176;2023-04-16T04:22:02;23.33;;;15.97;;
17201;SDS011;8717;53.588;10.176;2023-04-16T04:24:29;19.20;;;14.97;;
17201;SDS011;8717;53.588;10.176;2023-04-16T04:26:57;29.83;;;22.83;;
17201;SDS011;8717;53.588;10.176;2023-04-16T04:29:25;27.53;;;18.93;;
17201;SDS011;8717;53.588;10.176;2023-04-16T04:31:52;24.50;;;18.10;;
17201;SDS011;8717;53.588;10.176;2023-04-16T04:34:21;35.47;;;23.73;;
17201;SDS011;8717;53.588;10.176;2023-04-16T04:36:48;67.57;;;47.47;;
17201;SDS011;8717;53.588;10.176;2023-04-16T04:39:14;35.43;;;25.20;;
17201;SDS011;8717;53.588;10.176;2023-04-16T04:41:42;34.10;;;24.80;;
17201;SDS011;8717;53.588;10.176;2023-04-16T04:44:09;29.73;;;21.40;;
17201;SDS011;8717;53.588;10.176;2023-04-16T04:46:37;23.27;;;16.40;;
17201;SDS011;8717;53.588;10.176;2023-04-16T04:49:04;22.07;;;16.77;;
17201;SDS011;8717;53.588;10.176;2023-04-16T04:51:31;72.90;;;45.40;;
17201;SDS011;8717;53.588;10.176;2023-04-16T04:53:58;89.93;;;57.80;;
17201;SDS011;8717;53.588;10.176;2023-04-16T04:56:25;42.67;;;30.23;;
17201;SDS011;8717;53.588;10.176;2023-04-16T04:58:53;29.27;;;21.93;;
17201;SDS011;8717;53.588;10.176;2023-04-16T05:01:20;27.20;;;18.63;;
17201;SDS011;8717;53.588;10.176;2023-04-16T05:03:48;19.57;;;15.60;;
17201;SDS011;8717;53.588;10.176;2023-04-16T05:06:15;24.50;;;17.43;;
17201;SDS011;8717;53.588;10.176;2023-04-16T05:08:42;25.40;;;17.03;;
17201;SDS011;8717;53.588;10.176;2023-04-16T05:11:09;21.70;;;15.67;;
17201;SDS011;8717;53.588;10.176;2023-04-16T05:13:36;25.97;;;16.80;;
17201;SDS011;8717;53.588;10.176;2023-04-16T05:16:03;21.07;;;15.70;;
17201;SDS011;8717;53.588;10.176;2023-04-16T05:18:30;22.30;;;16.60;;
17201;SDS011;8717;53.588;10.176;2023-04-16T05:20:58;23.23;;;17.73;;
17201;SDS011;8717;53.588;10.176;2023-04-16T05:23:25;30.63;;;20.63;;
17201;SDS011;8717;53.588;10.176;2023-04-16T05:25:52;25.83;;;18.77;;
17201;SDS011;8717;53.588;10.176;2023-04-16T05:28:18;34.43;;;19.73;;
17201;SDS011;8717;53.588;10.176;2023-04-16T05:30:45;25.83;;;17.77;;
17201;SDS011;8717;53.588;10.176;2023-04-16T05:33:12;24.70;;;17.33;;
17201;SDS011;8717;53.588;10.176;2023-04-16T05:35:38;29.10;;;21.10;;
17201;SDS011;8717;53.588;10.176;2023-04-16T05:38:06;31.60;;;21.10;;
17201;SDS011;8717;53.588;10.176;2023-04-16T05:40:33;26.77;;;17.53;;
17201;SDS011;8717;53.588;10.176;2023-04-16T05:43:00;20.57;;;15.33;;
17201;SDS011;8717;53.588;10.176;2023-04-16T05:45:27;23.23;;;16.37;;
17201;SDS011;8717;53.588;10.176;2023-04-16T05:47:55;21.33;;;16.07;;
17201;SDS011;8717;53.588;10.176;2023-04-16T05:50:22;23.47;;;17.10;;
17201;SDS011;8717;53.588;10.176;2023-04-16T05:52:49;22.73;;;16.03;;
17201;SDS011;8717;53.588;10.176;2023-04-16T05:55:17;21.43;;;16.00;;
17201;SDS011;8717;53.588;10.176;2023-04-16T05:57:44;21.47;;;15.27;;
17201;SDS011;8717;53.588;10.176;2023-04-16T06:00:11;25.80;;;16.50;;
17201;SDS011;8717;53.588;10.176;2023-04-16T06:02:38;20.97;;;16.10;;
17201;SDS011;8717;53.588;10.176;2023-04-16T06:05:05;21.53;;;15.90;;
17201;SDS011;8717;53.588;10.176;2023-04-16T06:07:32;24.20;;;16.70;;
17201;SDS011;8717;53.588;10.176;2023-04-16T06:09:58;19.57;;;15.70;;
17201;SDS011;8717;53.588;10.176;2023-04-16T06:12:26;28.23;;;19.13;;
17201;SDS011;8717;53.588;10.176;2023-04-16T06:14:53;25.87;;;19.30;;
17201;SDS011;8717;53.588;10.176;2023-04-16T06:17:20;29.53;;;22.57;;
17201;SDS011;8717;53.588;10.176;2023-04-16T06:19:47;24.03;;;17.03;;
17201;SDS011;8717;53.588;10.176;2023-04-16T06:22:13;26.73;;;20.40;;
17201;SDS011;8717;53.588;10.176;2023-04-16T06:24:40;24.50;;;19.40;;
17201;SDS011;8717;53.588;10.176;2023-04-16T06:27:07;19.57;;;15.97;;
17201;SDS011;8717;53.588;10.176;2023-04-16T06:29:35;21.60;;;16.47;;
17201;SDS011;8717;53.588;10.176;2023-04-16T06:32:02;24.33;;;17.03;;
17201;SDS011;8717;53.588;10.176;2023-04-16T06:34:29;23.73;;;16.27;;
17201;SDS011;8717;53.588;10.176;2023-04-16T06:36:56;26.83;;;18.40;;
17201;SDS011;8717;53.588;10.176;2023-04-16T06:39:23;22.17;;;16.80;;
17201;SDS011;8717;53.588;10.176;2023-04-16T06:41:50;23.17;;;18.00;;
17201;SDS011;8717;53.588;10.176;2023-04-16T06:44:16;21.97;;;16.50;;
17201;SDS011;8717;53.588;10.176;2023-04-16T06:46:44;21.43;;;16.13;;
17201;SDS011;8717;53.588;10.176;2023-04-16T06:49:11;24.57;;;18.90;;
17201;SDS011;8717;53.588;10.176;2023-04-16T06:51:37;19.73;;;16.10;;
17201;SDS011;8717;53.588;10.176;2023-04-16T06:54:04;25.47;;;16.73;;
17201;SDS011;8717;53.588;10.176;2023-04-16T06:56:31;22.70;;;16.50;;
17201;SDS011;8717;53.588;10.176;2023-04-16T06:58:57;22.47;;;16.07;;
17201;SDS011;8717;53.588;10.176;2023-04-16T07:01:25;24.13;;;16.20;;
17201;SDS011;8717;53.588;10.176;2023-04-16T07:03:53;23.67;;;16.43;;
17201;SDS011;8717;53.588;10.176;2023-04-16T07:06:20;21.20;;;15.73;;
17201;SDS011;8717;53.588;10.176;2023-04-16T07:08:46;21.63;;;15.80;;
17201;SDS011;8717;53.588;10.176;2023-04-16T07:11:13;22.63;;;16.83;;
17201;SDS011;8717;53.588;10.176;2023-04-16T07:13:40;21.57;;;16.60;;
17201;SDS011;8717;53.588;10.176;2023-04-16T07:16:07;19.83;;;15.50;;
17201;SDS011;8717;53.588;10.176;2023-04-16T07:18:33;23.97;;;16.67;;
17201;SDS011;8717;53.588;10.176;2023-04-16T07:21:01;21.83;;;15.23;;
17201;SDS011;8717;53.588;10.176;2023-04-16T07:23:28;24.23;;;17.00;;
17201;SDS011;8717;53.588;10.176;2023-04-16T07:25:56;19.60;;;16.37;;
17201;SDS011;8717;53.588;10.176;2023-04-16T07:28:22;23.30;;;16.07;;
17201;SDS011;8717;53.588;10.176;2023-04-16T07:30:49;19.63;;;14.77;;
17201;SDS011;8717;53.588;10.176;2023-04-16T07:33:16;18.00;;;14.27;;
17201;SDS011;8717;53.588;10.176;2023-04-16T07:35:43;23.43;;;15.20;;
17201;SDS011;8717;53.588;10.176;2023-04-16T07:38:11;17.07;;;13.23;;
17201;SDS011;8717;53.588;10.176;2023-04-16T07:40:38;18.97;;;13.63;;
17201;SDS011;8717;53.588;10.176;2023-04-16T07:43:05;21.20;;;15.53;;
17201;SDS011;8717;53.588;10.176;2023-04-16T07:45:32;17.30;;;14.43;;
17201;SDS011;8717;53.588;10.176;2023-04-16T07:47:58;18.77;;;13.90;;
17201;SDS011;8717;53.588;10.176;2023-04-16T07:50:25;19.93;;;14.20;;
17201;SDS011;8717;53.588;10.176;2023-04-16T07:52:52;19.93;;;13.50;;
17201;SDS011;8717;53.588;10.176;2023-04-16T07:55:20;18.23;;;14.33;;
17201;SDS011;8717;53.588;10.176;2023-04-16T07:57:47;19.23;;;14.40;;
17201;SDS011;8717;53.588;10.176;2023-04-16T08:00:14;21.43;;;13.57;;
17201;SDS011;8717;53.588;10.176;2023-04-16T08:02:41;17.87;;;13.70;;
17201;SDS011;8717;53.588;10.176;2023-04-16T08:05:08;18.73;;;14.07;;
17201;SDS011;8717;53.588;10.176;2023-04-16T08:07:36;19.03;;;14.00;;
17201;SDS011;8717;53.588;10.176;2023-04-16T08:10:03;16.90;;;13.57;;
17201;SDS011;8717;53.588;10.176;2023-04-16T08:12:32;20.23;;;15.20;;
17201;SDS011;8717;53.588;10.176;2023-04-16T08:14:59;18.07;;;13.97;;
17201;SDS011;8717;53.588;10.176;2023-04-16T08:17:26;19.20;;;14.43;;
17201;SDS011;8717;53.588;10.176;2023-04-16T08:19:53;16.60;;;13.17;;
17201;SDS011;8717;53.588;10.176;2023-04-16T08:22:20;17.57;;;12.90;;
17201;SDS011;8717;53.588;10.176;2023-04-16T08:24:47;17.07;;;13.13;;
17201;SDS011;8717;53.588;10.176;2023-04-16T08:27:14;17.27;;;13.27;;
17201;SDS011;8717;53.588;10.176;2023-04-16T08:29:42;19.23;;;13.60;;
17201;SDS011;8717;53.588;10.176;2023-04-16T08:32:09;18.40;;;13.30;;
17201;SDS011;8717;53.588;10.176;2023-04-16T08:34:36;16.90;;;12.57;;
17201;SDS011;8717;53.588;10.176;2023-04-16T08:37:02;20.80;;;12.93;;
17201;SDS011;8717;53.588;10.176;2023-04-16T08:39:29;18.80;;;13.47;;
17201;SDS011;8717;53.588;10.176;2023-04-16T08:41:56;15.83;;;12.70;;
17201;SDS011;8717;53.588;10.176;2023-04-16T08:44:24;18.17;;;13.33;;
17201;SDS011;8717;53.588;10.176;2023-04-16T08:46:54;15.50;;;12.37;;
17201;SDS011;8717;53.588;10.176;2023-04-16T08:49:22;17.87;;;12.87;;
17201;SDS011;8717;53.588;10.176;2023-04-16T08:51:50;17.03;;;12.80;;
17201;SDS011;8717;53.588;10.176;2023-04-16T08:54:30;21.43;;;13.23;;
17201;SDS011;8717;53.588;10.176;2023-04-16T08:56:59;15.70;;;12.47;;
17201;SDS011;8717;53.588;10.176;2023-04-16T08:59:30;15.27;;;12.30;;
17201;SDS011;8717;53.588;10.176;2023-04-16T09:01:59;16.43;;;12.83;;
17201;SDS011;8717;53.588;10.176;2023-04-16T09:04:27;16.00;;;12.63;;
17201;SDS011;8717;53.588;10.176;2023-04-16T09:06:54;14.83;;;11.83;;
17201;SDS011;8717;53.588;10.176;2023-04-16T09:09:21;17.20;;;12.20;;
17201;SDS011;8717;53.588;10.176;2023-04-16T09:11:49;16.53;;;12.57;;
17201;SDS011;8717;53.588;10.176;2023-04-16T09:14:17;16.50;;;11.90;;
17201;SDS011;8717;53.588;10.176;2023-04-16T09:16:44;16.30;;;12.53;;
17201;SDS011;8717;53.588;10.176;2023-04-16T09:19:13;16.93;;;13.03;;
17201;SDS011;8717;53.588;10.176;2023-04-16T09:21:41;18.93;;;12.60;;
17201;SDS011;8717;53.588;10.176;2023-04-16T09:24:10;15.70;;;12.37;;
17201;SDS011;8717;53.588;10.176;2023-04-16T09:26:37;16.20;;;13.27;;
17201;SDS011;8717;53.588;10.176;2023-04-16T09:29:04;15.20;;;11.70;;
17201;SDS011;8717;53.588;10.176;2023-04-16T09:31:31;15.93;;;11.93;;
17201;SDS011;8717;53.588;10.176;2023-04-16T09:34:01;15.97;;;13.37;;
17201;SDS011;8717;53.588;10.176;2023-04-16T09:36:30;20.33;;;16.27;;
17201;SDS011;8717;53.588;10.176;2023-04-16T09:38:57;14.53;;;12.63;;
17201;SDS011;8717;53.588;10.176;2023-04-16T09:41:25;15.20;;;11.57;;
17201;SDS011;8717;53.588;10.176;2023-04-16T09:43:53;15.17;;;11.67;;
17201;SDS011;8717;53.588;10.176;2023-04-16T09:46:21;15.97;;;11.33;;
17201;SDS011;8717;53.588;10.176;2023-04-16T09:48:49;17.40;;;11.33;;
17201;SDS011;8717;53.588;10.176;2023-04-16T09:51:15;15.97;;;10.97;;
17201;SDS011;8717;53.588;10.176;2023-04-16T09:53:43;15.63;;;11.67;;
17201;SDS011;8717;53.588;10.176;2023-04-16T09:56:10;13.00;;;10.47;;
17201;SDS011;8717;53.588;10.176;2023-04-16T09:58:37;14.87;;;11.00;;
17201;SDS011;8717;53.588;10.176;2023-04-16T10:01:05;14.43;;;10.20;;
17201;SDS011;8717;53.588;10.176;2023-04-16T10:03:34;13.97;;;11.33;;
17201;SDS011;8717;53.588;10.176;2023-04-16T10:06:05;14.97;;;10.73;;
17201;SDS011;8717;53.588;10.176;2023-04-16T10:08:33;15.83;;;11.60;;
17201;SDS011;8717;53.588;10.176;2023-04-16T10:11:01;13.30;;;10.40;;
17201;SDS011;8717;53.588;10.176;2023-04-16T10:13:31;16.27;;;10.90;;
17201;SDS011;8717;53.588;10.176;2023-04-16T10:15:58;12.70;;;10.87;;
17201;SDS011;8717;53.588;10.176;2023-04-16T10:18:26;13.80;;;10.80;;
17201;SDS011;8717;53.588;10.176;2023-04-16T10:20:53;12.57;;;10.07;;
17201;SDS011;8717;53.588;10.176;2023-04-16T10:23:20;10.57;;;9.20;;
17201;SDS011;8717;53.588;10.176;2023-04-16T10:25:47;16.77;;;13.23;;
17201;SDS011;8717;53.588;10.176;2023-04-16T10:28:16;12.60;;;10.27;;
17201;SDS011;8717;53.588;10.176;2023-04-16T10:30:43;13.20;;;10.63;;
17201;SDS011;8717;53.588;10.176;2023-04-16T10:33:17;11.63;;;9.63;;
17201;SDS011;8717;53.588;10.176;2023-04-16T10:35:46;13.13;;;10.30;;
17201;SDS011;8717;53.588;10.176;2023-04-16T10:38:25;14.60;;;11.80;;
17201;SDS011;8717;53.588;10.176;2023-04-16T10:40:59;13.40;;;10.90;;
17201;SDS011;8717;53.588;10.176;2023-04-16T10:43:29;13.77;;;11.00;;
17201;SDS011;8717;53.588;10.176;2023-04-16T10:45:56;15.23;;;10.60;;
17201;SDS011;8717;53.588;10.176;2023-04-16T10:48:23;14.77;;;11.40;;
17201;SDS011;8717;53.588;10.176;2023-04-16T10:50:53;14.00;;;11.10;;
17201;SDS011;8717;53.588;10.176;2023-04-16T10:53:22;15.67;;;10.93;;
17201;SDS011;8717;53.588;10.176;2023-04-16T10:55:55;16.10;;;12.17;;
17201;SDS011;8717;53.588;10.176;2023-04-16T10:58:26;16.03;;;11.10;;
17201;SDS011;8717;53.588;10.176;2023-04-16T11:00:54;16.40;;;12.77;;
17201;SDS011;8717;53.588;10.176;2023-04-16T11:03:24;12.60;;;10.70;;
17201;SDS011;8717;53.588;10.176;2023-04-16T11:05:50;14.33;;;11.30;;
17201;SDS011;8717;53.588;10.176;2023-04-16T11:08:17;13.57;;;10.67;;
17201;SDS011;8717;53.588;10.176;2023-04-16T11:10:43;13.93;;;11.20;;
17201;SDS011;8717;53.588;10.176;2023-04-16T11:13:10;17.40;;;11.13;;
17201;SDS011;8717;53.588;10.176;2023-04-16T11:15:38;14.30;;;11.40;;
17201;SDS011;8717;53.588;10.176;2023-04-16T11:18:06;14.03;;;11.60;;
17201;SDS011;8717;53.588;10.176;2023-04-16T11:20:33;13.70;;;10.73;;
17201;SDS011;8717;53.588;10.176;2023-04-16T11:23:00;13.60;;;10.67;;
17201;SDS011;8717;53.588;10.176;2023-04-16T11:25:27;17.33;;;11.70;;
17201;SDS011;8717;53.588;10.176;2023-04-16T11:27:55;16.63;;;11.70;;
17201;SDS011;8717;53.588;10.176;2023-04-16T11:30:27;16.23;;;11.23;;
17201;SDS011;8717;53.588;10.176;2023-04-16T11:32:55;13.87;;;11.10;;
17201;SDS011;8717;53.588;10.176;2023-04-16T11:35:23;16.40;;;10.37;;
17201;SDS011;8717;53.588;10.176;2023-04-16T11:37:54;12.30;;;10.03;;
17201;SDS011;8717;53.588;10.176;2023-04-16T11:40:22;14.70;;;9.90;;
17201;SDS011;8717;53.588;10.176;2023-04-16T11:42:49;12.60;;;10.23;;
17201;SDS011;8717;53.588;10.176;2023-04-16T11:45:15;12.43;;;10.17;;
17201;SDS011;8717;53.588;10.176;2023-04-16T11:47:43;11.70;;;9.73;;
17201;SDS011;8717;53.588;10.176;2023-04-16T11:50:18;12.60;;;10.13;;
17201;SDS011;8717;53.588;10.176;2023-04-16T11:52:47;11.87;;;9.57;;
17201;SDS011;8717;53.588;10.176;2023-04-16T11:55:14;15.57;;;10.20;;
17201;SDS011;8717;53.588;10.176;2023-04-16T11:57:43;12.87;;;9.40;;
17201;SDS011;8717;53.588;10.176;2023-04-16T12:00:11;11.43;;;10.23;;
17201;SDS011;8717;53.588;10.176;2023-04-16T12:02:39;14.73;;;10.03;;
17201;SDS011;8717;53.588;10.176;2023-04-16T12:05:24;13.20;;;10.37;;
17201;SDS011;8717;53.588;10.176;2023-04-16T12:07:53;15.70;;;10.63;;
17201;SDS011;8717;53.588;10.176;2023-04-16T12:10:19;12.30;;;10.07;;
17201;SDS011;8717;53.588;10.176;2023-04-16T12:12:46;15.93;;;10.93;;
17201;SDS011;8717;53.588;10.176;2023-04-16T12:15:13;15.73;;;10.87;;
17201;SDS011;8717;53.588;10.176;2023-04-16T12:17:40;14.20;;;10.93;;
17201;SDS011;8717;53.588;10.176;2023-04-16T12:20:07;13.30;;;10.73;;
17201;SDS011;8717;53.588;10.176;2023-04-16T12:22:36;13.83;;;10.37;;
17201;SDS011;8717;53.588;10.176;2023-04-16T12:25:05;14.00;;;11.20;;
17201;SDS011;8717;53.588;10.176;2023-04-16T12:27:42;17.03;;;11.07;;
17201;SDS011;8717;53.588;10.176;2023-04-16T12:30:11;13.63;;;10.80;;
17201;SDS011;8717;53.588;10.176;2023-04-16T12:32:39;13.80;;;10.20;;
17201;SDS011;8717;53.588;10.176;2023-04-16T12:35:06;12.27;;;10.03;;
17201;SDS011;8717;53.588;10.176;2023-04-16T12:37:34;13.90;;;10.70;;
17201;SDS011;8717;53.588;10.176;2023-04-16T12:40:00;14.37;;;10.50;;
17201;SDS011;8717;53.588;10.176;2023-04-16T12:42:30;12.97;;;9.93;;
17201;SDS011;8717;53.588;10.176;2023-04-16T12:45:02;13.13;;;10.23;;
17201;SDS011;8717;53.588;10.176;2023-04-16T12:47:30;13.20;;;10.33;;
17201;SDS011;8717;53.588;10.176;2023-04-16T12:49:56;14.23;;;10.93;;
17201;SDS011;8717;53.588;10.176;2023-04-16T12:52:23;14.37;;;11.00;;
17201;SDS011;8717;53.588;10.176;2023-04-16T12:54:50;14.43;;;10.93;;
17201;SDS011;8717;53.588;10.176;2023-04-16T12:57:17;13.47;;;10.50;;
17201;SDS011;8717;53.588;10.176;2023-04-16T12:59:45;15.67;;;11.43;;
17201;SDS011;8717;53.588;10.176;2023-04-16T13:02:12;16.23;;;11.67;;
17201;SDS011;8717;53.588;10.176;2023-04-16T13:04:39;14.47;;;10.33;;
17201;SDS011;8717;53.588;10.176;2023-04-16T13:07:06;13.33;;;10.77;;
17201;SDS011;8717;53.588;10.176;2023-04-16T13:09:32;14.37;;;10.97;;
17201;SDS011;8717;53.588;10.176;2023-04-16T13:11:59;17.57;;;11.77;;
17201;SDS011;8717;53.588;10.176;2023-04-16T13:14:26;14.03;;;10.60;;
17201;SDS011;8717;53.588;10.176;2023-04-16T13:16:54;12.80;;;11.03;;
17201;SDS011;8717;53.588;10.176;2023-04-16T13:19:20;13.83;;;10.40;;
17201;SDS011;8717;53.588;10.176;2023-04-16T13:21:47;14.63;;;10.73;;
17201;SDS011;8717;53.588;10.176;2023-04-16T13:24:14;13.53;;;10.40;;
17201;SDS011;8717;53.588;10.176;2023-04-16T13:26:40;13.17;;;10.60;;
17201;SDS011;8717;53.588;10.176;2023-04-16T13:29:07;11.97;;;10.17;;
17201;SDS011;8717;53.588;10.176;2023-04-16T13:31:34;13.37;;;10.17;;
17201;SDS011;8717;53.588;10.176;2023-04-16T13:34:02;16.07;;;11.43;;
17201;SDS011;8717;53.588;10.176;2023-04-16T13:36:29;15.23;;;10.50;;
17201;SDS011;8717;53.588;10.176;2023-04-16T13:38:56;13.53;;;10.27;;
17201;SDS011;8717;53.588;10.176;2023-04-16T13:41:22;13.50;;;10.67;;
17201;SDS011;8717;53.588;10.176;2023-04-16T13:43:49;13.67;;;10.63;;
17201;SDS011;8717;53.588;10.176;2023-04-16T13:46:16;12.47;;;10.77;;
17201;SDS011;8717;53.588;10.176;2023-04-16T13:48:43;16.73;;;10.73;;
17201;SDS011;8717;53.588;10.176;2023-04-16T13:51:12;15.73;;;11.50;;
17201;SDS011;8717;53.588;10.176;2023-04-16T13:53:39;14.13;;;11.20;;
17201;SDS011;8717;53.588;10.176;2023-04-16T13:56:06;13.83;;;10.87;;
17201;SDS011;8717;53.588;10.176;2023-04-16T13:58:33;13.47;;;11.17;;
17201;SDS011;8717;53.588;10.176;2023-04-16T14:00:59;14.67;;;11.47;;
17201;SDS011;8717;53.588;10.176;2023-04-16T14:03:26;14.00;;;10.90;;
17201;SDS011;8717;53.588;10.176;2023-04-16T14:05:53;14.23;;;10.93;;
17201;SDS011;8717;53.588;10.176;2023-04-16T14:08:21;14.63;;;11.10;;
17201;SDS011;8717;53.588;10.176;2023-04-16T14:10:47;15.80;;;11.30;;
17201;SDS011;8717;53.588;10.176;2023-04-16T14:13:14;14.57;;;11.60;;
17201;SDS011;8717;53.588;10.176;2023-04-16T14:15:41;18.43;;;12.13;;
17201;SDS011;8717;53.588;10.176;2023-04-16T14:18:07;17.10;;;11.70;;
17201;SDS011;8717;53.588;10.176;2023-04-16T14:20:34;13.53;;;10.97;;
17201;SDS011;8717;53.588;10.176;2023-04-16T14:23:03;15.43;;;11.30;;